sensor_id;sensor_type;location;lat;lon;timestamp;temperature;humidity
68912;SHT31;55953;51.650;-0.522;2022-12-07T00:01:44;3.41;88.20
68912;SHT31;55953;51.650;-0.522;2022-12-07T00:04:15;3.40;88.41
68912;SHT31;55953;51.650;-0.522;2022-12-07T00:06:45;3.39;88.43
68912;SHT31;55953;51.650;-0.522;2022-12-07T00:09:19;3.36;88.58
68912;SHT31;55953;51.650;-0.522;2022-12-07T00:11:50;3.34;88.32
68912;SHT31;55953;51.650;-0.522;2022-12-07T00:14:19;3.32;88.28
68912;SHT31;55953;51.650;-0.522;2022-12-07T00:16:49;3.28;88.26
68912;SHT31;55953;51.650;-0.522;2022-12-07T00:19:18;3.22;88.24
68912;SHT31;55953;51.650;-0.522;2022-12-07T00:21:47;3.20;88.22
68912;SHT31;55953;51.650;-0.522;2022-12-07T00:24:14;3.15;88.17
68912;SHT31;55953;51.650;-0.522;2022-12-07T00:26:42;3.09;88.39
68912;SHT31;55953;51.650;-0.522;2022-12-07T00:29:19;3.06;88.68
68912;SHT31;55953;51.650;-0.522;2022-12-07T00:31:49;3.04;88.63
68912;SHT31;55953;51.650;-0.522;2022-12-07T00:34:18;3.02;88.58
68912;SHT31;55953;51.650;-0.522;2022-12-07T00:36:48;3.01;88.62
68912;SHT31;55953;51.650;-0.522;2022-12-07T00:39:17;2.96;88.51
68912;SHT31;55953;51.650;-0.522;2022-12-07T00:41:45;2.93;88.77
68912;SHT31;55953;51.650;-0.522;2022-12-07T00:44:13;2.92;88.73
68912;SHT31;55953;51.650;-0.522;2022-12-07T00:46:40;2.90;88.94
68912;SHT31;55953;51.650;-0.522;2022-12-07T00:49:08;2.89;89.04
68912;SHT31;55953;51.650;-0.522;2022-12-07T00:51:36;2.85;88.91
68912;SHT31;55953;51.650;-0.522;2022-12-07T00:54:04;2.81;88.90
68912;SHT31;55953;51.650;-0.522;2022-12-07T00:56:31;2.76;89.10
68912;SHT31;55953;51.650;-0.522;2022-12-07T00:59:00;2.75;88.99
68912;SHT31;55953;51.650;-0.522;2022-12-07T01:01:32;2.72;89.26
68912;SHT31;55953;51.650;-0.522;2022-12-07T01:04:04;2.72;89.26
68912;SHT31;55953;51.650;-0.522;2022-12-07T01:06:32;2.70;89.34
68912;SHT31;55953;51.650;-0.522;2022-12-07T01:09:00;2.68;89.53
68912;SHT31;55953;51.650;-0.522;2022-12-07T01:11:28;2.67;89.51
68912;SHT31;55953;51.650;-0.522;2022-12-07T01:13:58;2.65;89.30
68912;SHT31;55953;51.650;-0.522;2022-12-07T01:16:29;2.64;89.47
68912;SHT31;55953;51.650;-0.522;2022-12-07T01:18:59;2.66;89.40
68912;SHT31;55953;51.650;-0.522;2022-12-07T01:21:30;2.65;89.46
68912;SHT31;55953;51.650;-0.522;2022-12-07T01:24:05;2.64;89.42
68912;SHT31;55953;51.650;-0.522;2022-12-07T01:26:37;2.66;89.32
68912;SHT31;55953;51.650;-0.522;2022-12-07T01:29:05;2.66;89.64
68912;SHT31;55953;51.650;-0.522;2022-12-07T01:31:33;2.63;89.52
68912;SHT31;55953;51.650;-0.522;2022-12-07T01:34:01;2.64;89.57
68912;SHT31;55953;51.650;-0.522;2022-12-07T01:36:29;2.64;89.45
68912;SHT31;55953;51.650;-0.522;2022-12-07T01:39:01;2.63;89.27
68912;SHT31;55953;51.650;-0.522;2022-12-07T01:41:34;2.63;89.53
68912;SHT31;55953;51.650;-0.522;2022-12-07T01:44:26;2.62;89.29
68912;SHT31;55953;51.650;-0.522;2022-12-07T01:47:01;2.60;89.37
68912;SHT31;55953;51.650;-0.522;2022-12-07T01:52:21;2.60;90.03
68912;SHT31;55953;51.650;-0.522;2022-12-07T01:54:57;2.62;89.81
68912;SHT31;55953;51.650;-0.522;2022-12-07T01:57:30;2.64;89.57
68912;SHT31;55953;51.650;-0.522;2022-12-07T02:00:03;2.66;89.55
68912;SHT31;55953;51.650;-0.522;2022-12-07T02:02:44;2.68;89.68
68912;SHT31;55953;51.650;-0.522;2022-12-07T02:05:25;2.71;89.74
68912;SHT31;55953;51.650;-0.522;2022-12-07T02:07:55;2.76;89.57
68912;SHT31;55953;51.650;-0.522;2022-12-07T02:10:25;2.82;89.49
68912;SHT31;55953;51.650;-0.522;2022-12-07T02:12:58;2.89;89.41
68912;SHT31;55953;51.650;-0.522;2022-12-07T02:15:48;2.94;89.45
68912;SHT31;55953;51.650;-0.522;2022-12-07T02:30:08;3.20;89.09
68912;SHT31;55953;51.650;-0.522;2022-12-07T02:35:31;3.26;88.99
68912;SHT31;55953;51.650;-0.522;2022-12-07T02:38:24;3.27;88.90
68912;SHT31;55953;51.650;-0.522;2022-12-07T02:41:06;3.30;88.87
68912;SHT31;55953;51.650;-0.522;2022-12-07T02:43:42;3.27;88.98
68912;SHT31;55953;51.650;-0.522;2022-12-07T02:46:36;3.27;88.99
68912;SHT31;55953;51.650;-0.522;2022-12-07T02:49:09;3.28;88.87
68912;SHT31;55953;51.650;-0.522;2022-12-07T02:51:39;3.28;88.80
68912;SHT31;55953;51.650;-0.522;2022-12-07T02:54:17;3.26;88.76
68912;SHT31;55953;51.650;-0.522;2022-12-07T02:56:50;3.25;88.73
68912;SHT31;55953;51.650;-0.522;2022-12-07T02:59:33;3.23;88.70
68912;SHT31;55953;51.650;-0.522;2022-12-07T03:05:15;3.18;88.72
68912;SHT31;55953;51.650;-0.522;2022-12-07T03:08:04;3.19;88.62
68912;SHT31;55953;51.650;-0.522;2022-12-07T03:11:16;3.19;88.53
68912;SHT31;55953;51.650;-0.522;2022-12-07T03:14:09;3.16;88.54
68912;SHT31;55953;51.650;-0.522;2022-12-07T03:16:56;3.16;88.49
68912;SHT31;55953;51.650;-0.522;2022-12-07T03:19:33;3.14;88.49
68912;SHT31;55953;51.650;-0.522;2022-12-07T03:22:05;3.08;88.56
68912;SHT31;55953;51.650;-0.522;2022-12-07T03:24:40;3.04;88.60
68912;SHT31;55953;51.650;-0.522;2022-12-07T03:27:22;3.05;88.60
68912;SHT31;55953;51.650;-0.522;2022-12-07T03:30:07;3.05;88.53
68912;SHT31;55953;51.650;-0.522;2022-12-07T03:32:50;3.02;88.66
68912;SHT31;55953;51.650;-0.522;2022-12-07T03:35:40;3.02;88.78
68912;SHT31;55953;51.650;-0.522;2022-12-07T03:38:31;3.03;88.84
68912;SHT31;55953;51.650;-0.522;2022-12-07T03:41:12;3.06;88.87
68912;SHT31;55953;51.650;-0.522;2022-12-07T03:43:53;3.09;88.87
68912;SHT31;55953;51.650;-0.522;2022-12-07T03:49:18;3.13;88.75
68912;SHT31;55953;51.650;-0.522;2022-12-07T03:57:42;3.20;88.66
68912;SHT31;55953;51.650;-0.522;2022-12-07T04:00:13;3.23;88.57
68912;SHT31;55953;51.650;-0.522;2022-12-07T04:02:42;3.26;88.50
68912;SHT31;55953;51.650;-0.522;2022-12-07T04:05:10;3.28;88.33
68912;SHT31;55953;51.650;-0.522;2022-12-07T04:07:39;3.28;88.25
68912;SHT31;55953;51.650;-0.522;2022-12-07T04:10:09;3.25;88.26
68912;SHT31;55953;51.650;-0.522;2022-12-07T04:12:38;3.22;88.25
68912;SHT31;55953;51.650;-0.522;2022-12-07T04:15:06;3.20;88.30
68912;SHT31;55953;51.650;-0.522;2022-12-07T04:17:35;3.19;88.32
68912;SHT31;55953;51.650;-0.522;2022-12-07T04:20:03;3.13;88.34
68912;SHT31;55953;51.650;-0.522;2022-12-07T04:22:32;3.11;88.30
68912;SHT31;55953;51.650;-0.522;2022-12-07T04:25:00;3.06;88.31
68912;SHT31;55953;51.650;-0.522;2022-12-07T04:27:28;3.03;88.31
68912;SHT31;55953;51.650;-0.522;2022-12-07T04:29:55;2.96;88.41
68912;SHT31;55953;51.650;-0.522;2022-12-07T04:32:23;2.87;88.51
68912;SHT31;55953;51.650;-0.522;2022-12-07T04:34:51;2.82;88.67
68912;SHT31;55953;51.650;-0.522;2022-12-07T04:37:23;2.78;88.77
68912;SHT31;55953;51.650;-0.522;2022-12-07T04:39:51;2.75;88.71
68912;SHT31;55953;51.650;-0.522;2022-12-07T04:42:19;2.69;88.71
68912;SHT31;55953;51.650;-0.522;2022-12-07T04:44:47;2.64;88.77
68912;SHT31;55953;51.650;-0.522;2022-12-07T04:47:15;2.57;88.93
68912;SHT31;55953;51.650;-0.522;2022-12-07T04:49:42;2.52;88.91
68912;SHT31;55953;51.650;-0.522;2022-12-07T04:52:10;2.44;89.14
68912;SHT31;55953;51.650;-0.522;2022-12-07T04:54:38;2.39;89.01
68912;SHT31;55953;51.650;-0.522;2022-12-07T04:57:05;2.34;89.28
68912;SHT31;55953;51.650;-0.522;2022-12-07T04:59:33;2.29;89.38
68912;SHT31;55953;51.650;-0.522;2022-12-07T05:02:01;2.25;89.27
68912;SHT31;55953;51.650;-0.522;2022-12-07T05:04:29;2.21;89.27
68912;SHT31;55953;51.650;-0.522;2022-12-07T05:06:57;2.17;89.70
68912;SHT31;55953;51.650;-0.522;2022-12-07T05:09:24;2.13;89.48
68912;SHT31;55953;51.650;-0.522;2022-12-07T05:11:52;2.10;89.48
68912;SHT31;55953;51.650;-0.522;2022-12-07T05:14:20;2.06;89.64
68912;SHT31;55953;51.650;-0.522;2022-12-07T05:16:49;2.02;89.57
68912;SHT31;55953;51.650;-0.522;2022-12-07T05:19:18;2.00;89.65
68912;SHT31;55953;51.650;-0.522;2022-12-07T05:21:46;1.95;89.81
68912;SHT31;55953;51.650;-0.522;2022-12-07T05:24:15;1.95;89.72
68912;SHT31;55953;51.650;-0.522;2022-12-07T05:26:44;1.92;89.75
68912;SHT31;55953;51.650;-0.522;2022-12-07T05:29:13;1.90;90.13
68912;SHT31;55953;51.650;-0.522;2022-12-07T05:31:43;1.92;89.90
68912;SHT31;55953;51.650;-0.522;2022-12-07T05:34:11;1.91;89.96
68912;SHT31;55953;51.650;-0.522;2022-12-07T05:36:39;1.92;90.07
68912;SHT31;55953;51.650;-0.522;2022-12-07T05:39:07;1.90;90.07
68912;SHT31;55953;51.650;-0.522;2022-12-07T05:41:37;1.89;89.98
68912;SHT31;55953;51.650;-0.522;2022-12-07T05:44:24;1.87;90.26
68912;SHT31;55953;51.650;-0.522;2022-12-07T05:46:52;1.87;90.16
68912;SHT31;55953;51.650;-0.522;2022-12-07T05:49:19;1.87;90.05
68912;SHT31;55953;51.650;-0.522;2022-12-07T05:51:47;1.88;90.02
68912;SHT31;55953;51.650;-0.522;2022-12-07T05:54:15;1.90;89.99
68912;SHT31;55953;51.650;-0.522;2022-12-07T05:56:42;1.93;90.02
68912;SHT31;55953;51.650;-0.522;2022-12-07T05:59:10;1.95;90.28
68912;SHT31;55953;51.650;-0.522;2022-12-07T06:04:28;2.00;89.90
68912;SHT31;55953;51.650;-0.522;2022-12-07T06:07:00;1.99;89.86
68912;SHT31;55953;51.650;-0.522;2022-12-07T06:09:28;1.96;90.04
68912;SHT31;55953;51.650;-0.522;2022-12-07T06:11:57;1.93;89.93
68912;SHT31;55953;51.650;-0.522;2022-12-07T06:14:44;1.92;89.84
68912;SHT31;55953;51.650;-0.522;2022-12-07T06:17:13;1.88;89.87
68912;SHT31;55953;51.650;-0.522;2022-12-07T06:19:42;1.87;89.92
68912;SHT31;55953;51.650;-0.522;2022-12-07T06:22:10;1.87;89.91
68912;SHT31;55953;51.650;-0.522;2022-12-07T06:24:39;1.88;89.88
68912;SHT31;55953;51.650;-0.522;2022-12-07T06:27:08;1.86;89.91
68912;SHT31;55953;51.650;-0.522;2022-12-07T06:29:37;1.86;89.75
68912;SHT31;55953;51.650;-0.522;2022-12-07T06:32:05;1.85;89.67
68912;SHT31;55953;51.650;-0.522;2022-12-07T06:34:33;1.82;89.53
68912;SHT31;55953;51.650;-0.522;2022-12-07T06:37:01;1.80;89.64
68912;SHT31;55953;51.650;-0.522;2022-12-07T06:39:29;1.78;89.65
68912;SHT31;55953;51.650;-0.522;2022-12-07T06:41:58;1.75;89.60
68912;SHT31;55953;51.650;-0.522;2022-12-07T06:44:26;1.72;89.53
68912;SHT31;55953;51.650;-0.522;2022-12-07T06:46:54;1.66;89.54
68912;SHT31;55953;51.650;-0.522;2022-12-07T06:49:42;1.65;89.86
68912;SHT31;55953;51.650;-0.522;2022-12-07T06:52:10;1.67;89.71
68912;SHT31;55953;51.650;-0.522;2022-12-07T06:54:37;1.63;89.58
68912;SHT31;55953;51.650;-0.522;2022-12-07T06:57:05;1.56;89.58
68912;SHT31;55953;51.650;-0.522;2022-12-07T06:59:33;1.51;89.68
68912;SHT31;55953;51.650;-0.522;2022-12-07T07:02:00;1.47;89.70
68912;SHT31;55953;51.650;-0.522;2022-12-07T07:04:28;1.43;90.17
68912;SHT31;55953;51.650;-0.522;2022-12-07T07:06:56;1.43;90.24
68912;SHT31;55953;51.650;-0.522;2022-12-07T07:09:26;1.42;90.08
68912;SHT31;55953;51.650;-0.522;2022-12-07T07:11:54;1.43;90.01
68912;SHT31;55953;51.650;-0.522;2022-12-07T07:14:22;1.43;89.91
68912;SHT31;55953;51.650;-0.522;2022-12-07T07:16:50;1.44;89.87
68912;SHT31;55953;51.650;-0.522;2022-12-07T07:19:18;1.42;89.74
68912;SHT31;55953;51.650;-0.522;2022-12-07T07:21:46;1.36;89.56
68912;SHT31;55953;51.650;-0.522;2022-12-07T07:24:14;1.31;89.80
68912;SHT31;55953;51.650;-0.522;2022-12-07T07:26:41;1.34;89.90
68912;SHT31;55953;51.650;-0.522;2022-12-07T07:29:09;1.32;89.68
68912;SHT31;55953;51.650;-0.522;2022-12-07T07:31:37;1.27;89.87
68912;SHT31;55953;51.650;-0.522;2022-12-07T07:34:05;1.25;89.96
68912;SHT31;55953;51.650;-0.522;2022-12-07T07:36:32;1.25;89.85
68912;SHT31;55953;51.650;-0.522;2022-12-07T07:39:00;1.25;89.72
68912;SHT31;55953;51.650;-0.522;2022-12-07T07:41:28;1.21;89.61
68912;SHT31;55953;51.650;-0.522;2022-12-07T07:43:56;1.20;89.66
68912;SHT31;55953;51.650;-0.522;2022-12-07T07:46:23;1.17;89.52
68912;SHT31;55953;51.650;-0.522;2022-12-07T07:48:51;1.13;89.56
68912;SHT31;55953;51.650;-0.522;2022-12-07T07:51:19;1.12;89.63
68912;SHT31;55953;51.650;-0.522;2022-12-07T07:53:47;1.06;89.42
68912;SHT31;55953;51.650;-0.522;2022-12-07T07:56:14;1.00;89.55
68912;SHT31;55953;51.650;-0.522;2022-12-07T07:58:42;1.00;89.90
68912;SHT31;55953;51.650;-0.522;2022-12-07T08:01:10;1.02;89.89
68912;SHT31;55953;51.650;-0.522;2022-12-07T08:03:39;1.02;89.88
68912;SHT31;55953;51.650;-0.522;2022-12-07T08:06:06;1.04;89.86
68912;SHT31;55953;51.650;-0.522;2022-12-07T08:08:34;1.09;89.77
68912;SHT31;55953;51.650;-0.522;2022-12-07T08:11:05;1.14;89.65
68912;SHT31;55953;51.650;-0.522;2022-12-07T08:13:36;1.14;89.53
68912;SHT31;55953;51.650;-0.522;2022-12-07T08:16:05;1.18;89.47
68912;SHT31;55953;51.650;-0.522;2022-12-07T08:18:37;1.19;89.37
68912;SHT31;55953;51.650;-0.522;2022-12-07T08:21:08;1.15;89.26
68912;SHT31;55953;51.650;-0.522;2022-12-07T08:23:40;1.15;89.25
68912;SHT31;55953;51.650;-0.522;2022-12-07T08:26:11;1.13;89.38
68912;SHT31;55953;51.650;-0.522;2022-12-07T08:28:41;1.14;89.41
68912;SHT31;55953;51.650;-0.522;2022-12-07T08:31:12;1.15;89.40
68912;SHT31;55953;51.650;-0.522;2022-12-07T08:33:45;1.18;89.36
68912;SHT31;55953;51.650;-0.522;2022-12-07T08:36:14;1.18;89.34
68912;SHT31;55953;51.650;-0.522;2022-12-07T08:38:43;1.19;89.38
68912;SHT31;55953;51.650;-0.522;2022-12-07T08:41:31;1.21;89.38
68912;SHT31;55953;51.650;-0.522;2022-12-07T08:43:59;1.23;89.35
68912;SHT31;55953;51.650;-0.522;2022-12-07T08:46:37;1.28;89.35
68912;SHT31;55953;51.650;-0.522;2022-12-07T08:49:22;1.33;89.29
68912;SHT31;55953;51.650;-0.522;2022-12-07T08:51:58;1.37;89.17
68912;SHT31;55953;51.650;-0.522;2022-12-07T08:54:26;1.37;89.12
68912;SHT31;55953;51.650;-0.522;2022-12-07T08:56:56;1.41;89.14
68912;SHT31;55953;51.650;-0.522;2022-12-07T08:59:26;1.44;89.09
68912;SHT31;55953;51.650;-0.522;2022-12-07T09:01:56;1.46;88.98
68912;SHT31;55953;51.650;-0.522;2022-12-07T09:04:24;1.45;88.89
68912;SHT31;55953;51.650;-0.522;2022-12-07T09:06:52;1.49;88.93
68912;SHT31;55953;51.650;-0.522;2022-12-07T09:09:21;1.55;88.80
68912;SHT31;55953;51.650;-0.522;2022-12-07T09:11:49;1.55;88.69
68912;SHT31;55953;51.650;-0.522;2022-12-07T09:14:17;1.57;88.71
68912;SHT31;55953;51.650;-0.522;2022-12-07T09:16:46;1.59;88.67
68912;SHT31;55953;51.650;-0.522;2022-12-07T09:19:13;1.59;88.66
68912;SHT31;55953;51.650;-0.522;2022-12-07T09:21:41;1.63;88.70
68912;SHT31;55953;51.650;-0.522;2022-12-07T09:24:09;1.68;88.62
68912;SHT31;55953;51.650;-0.522;2022-12-07T09:26:40;1.69;88.49
68912;SHT31;55953;51.650;-0.522;2022-12-07T09:29:08;1.73;88.47
68912;SHT31;55953;51.650;-0.522;2022-12-07T09:31:36;1.77;88.42
68912;SHT31;55953;51.650;-0.522;2022-12-07T09:34:04;1.82;88.39
68912;SHT31;55953;51.650;-0.522;2022-12-07T09:36:33;1.87;88.25
68912;SHT31;55953;51.650;-0.522;2022-12-07T09:39:01;1.93;88.10
68912;SHT31;55953;51.650;-0.522;2022-12-07T09:41:32;1.98;88.07
68912;SHT31;55953;51.650;-0.522;2022-12-07T09:46:39;2.07;87.69
68912;SHT31;55953;51.650;-0.522;2022-12-07T09:49:11;2.12;87.47
68912;SHT31;55953;51.650;-0.522;2022-12-07T09:51:44;2.15;87.02
68912;SHT31;55953;51.650;-0.522;2022-12-07T09:54:14;2.21;87.14
68912;SHT31;55953;51.650;-0.522;2022-12-07T09:56:43;2.26;87.15
68912;SHT31;55953;51.650;-0.522;2022-12-07T09:59:13;2.30;87.06
68912;SHT31;55953;51.650;-0.522;2022-12-07T10:01:47;2.36;86.76
68912;SHT31;55953;51.650;-0.522;2022-12-07T10:04:18;2.44;86.63
68912;SHT31;55953;51.650;-0.522;2022-12-07T10:06:51;2.50;86.58
68912;SHT31;55953;51.650;-0.522;2022-12-07T10:09:20;2.55;86.56
68912;SHT31;55953;51.650;-0.522;2022-12-07T10:14:30;2.63;85.91
68912;SHT31;55953;51.650;-0.522;2022-12-07T10:17:35;2.69;85.48
68912;SHT31;55953;51.650;-0.522;2022-12-07T10:20:17;2.75;85.75
68912;SHT31;55953;51.650;-0.522;2022-12-07T10:25:34;2.80;85.39
68912;SHT31;55953;51.650;-0.522;2022-12-07T10:30:46;2.90;85.31
68912;SHT31;55953;51.650;-0.522;2022-12-07T10:33:31;2.95;85.20
68912;SHT31;55953;51.650;-0.522;2022-12-07T10:39:12;3.01;84.64
68912;SHT31;55953;51.650;-0.522;2022-12-07T10:41:55;3.04;84.40
68912;SHT31;55953;51.650;-0.522;2022-12-07T10:44:32;3.09;84.28
68912;SHT31;55953;51.650;-0.522;2022-12-07T11:12:59;3.25;83.75
68912;SHT31;55953;51.650;-0.522;2022-12-07T11:16:21;3.26;82.98
68912;SHT31;55953;51.650;-0.522;2022-12-07T11:19:24;3.28;83.55
68912;SHT31;55953;51.650;-0.522;2022-12-07T11:22:27;3.31;83.24
68912;SHT31;55953;51.650;-0.522;2022-12-07T11:33:46;3.44;82.80
68912;SHT31;55953;51.650;-0.522;2022-12-07T11:36:29;3.49;83.24
68912;SHT31;55953;51.650;-0.522;2022-12-07T11:41:49;3.56;82.79
68912;SHT31;55953;51.650;-0.522;2022-12-07T11:56:14;3.74;82.35
68912;SHT31;55953;51.650;-0.522;2022-12-07T11:58:48;3.77;81.97
68912;SHT31;55953;51.650;-0.522;2022-12-07T12:06:39;3.84;81.74
68912;SHT31;55953;51.650;-0.522;2022-12-07T12:09:52;3.90;82.09
68912;SHT31;55953;51.650;-0.522;2022-12-07T12:16:34;4.05;81.13
68912;SHT31;55953;51.650;-0.522;2022-12-07T12:19:40;4.09;81.52
68912;SHT31;55953;51.650;-0.522;2022-12-07T12:22:41;4.19;81.37
68912;SHT31;55953;51.650;-0.522;2022-12-07T12:27:54;4.25;81.20
68912;SHT31;55953;51.650;-0.522;2022-12-07T12:33:27;4.31;81.64
68912;SHT31;55953;51.650;-0.522;2022-12-07T12:44:38;4.24;80.59
68912;SHT31;55953;51.650;-0.522;2022-12-07T12:46:57;4.31;80.85
68912;SHT31;55953;51.650;-0.522;2022-12-07T12:49:33;4.39;80.77
68912;SHT31;55953;51.650;-0.522;2022-12-07T12:55:01;4.50;80.29
68912;SHT31;55953;51.650;-0.522;2022-12-07T12:57:40;4.49;79.99
68912;SHT31;55953;51.650;-0.522;2022-12-07T13:00:21;4.55;80.26
68912;SHT31;55953;51.650;-0.522;2022-12-07T13:02:53;4.65;80.57
68912;SHT31;55953;51.650;-0.522;2022-12-07T13:05:27;4.74;79.72
68912;SHT31;55953;51.650;-0.522;2022-12-07T13:07:58;4.77;79.90
68912;SHT31;55953;51.650;-0.522;2022-12-07T13:10:43;4.78;79.80
68912;SHT31;55953;51.650;-0.522;2022-12-07T13:28:51;4.88;79.93
68912;SHT31;55953;51.650;-0.522;2022-12-07T13:31:41;4.93;79.87
68912;SHT31;55953;51.650;-0.522;2022-12-07T13:34:32;4.97;79.14
68912;SHT31;55953;51.650;-0.522;2022-12-07T13:40:15;5.12;80.05
68912;SHT31;55953;51.650;-0.522;2022-12-07T13:42:47;5.19;79.29
68912;SHT31;55953;51.650;-0.522;2022-12-07T13:45:28;5.21;79.32
68912;SHT31;55953;51.650;-0.522;2022-12-07T13:48:29;5.17;78.50
68912;SHT31;55953;51.650;-0.522;2022-12-07T13:51:14;5.15;79.25
68912;SHT31;55953;51.650;-0.522;2022-12-07T13:53:53;5.16;79.28
68912;SHT31;55953;51.650;-0.522;2022-12-07T13:56:39;5.22;78.78
68912;SHT31;55953;51.650;-0.522;2022-12-07T13:59:10;5.24;78.77
68912;SHT31;55953;51.650;-0.522;2022-12-07T14:01:44;5.25;78.41
68912;SHT31;55953;51.650;-0.522;2022-12-07T14:04:19;5.23;78.39
68912;SHT31;55953;51.650;-0.522;2022-12-07T14:07:00;5.24;78.13
68912;SHT31;55953;51.650;-0.522;2022-12-07T14:09:53;5.22;77.88
68912;SHT31;55953;51.650;-0.522;2022-12-07T14:12:35;5.16;77.44
68912;SHT31;55953;51.650;-0.522;2022-12-07T14:15:04;5.11;78.12
68912;SHT31;55953;51.650;-0.522;2022-12-07T14:17:33;5.12;78.90
68912;SHT31;55953;51.650;-0.522;2022-12-07T14:20:01;5.11;78.50
68912;SHT31;55953;51.650;-0.522;2022-12-07T14:25:18;5.01;78.71
68912;SHT31;55953;51.650;-0.522;2022-12-07T14:27:54;4.99;78.87
68912;SHT31;55953;51.650;-0.522;2022-12-07T14:30:32;4.99;79.43
68912;SHT31;55953;51.650;-0.522;2022-12-07T14:33:02;4.94;79.34
68912;SHT31;55953;51.650;-0.522;2022-12-07T14:35:32;4.83;79.30
68912;SHT31;55953;51.650;-0.522;2022-12-07T14:38:00;4.73;79.52
68912;SHT31;55953;51.650;-0.522;2022-12-07T14:40:28;4.63;79.62
68912;SHT31;55953;51.650;-0.522;2022-12-07T14:45:32;4.42;79.88
68912;SHT31;55953;51.650;-0.522;2022-12-07T14:48:00;4.30;79.52
68912;SHT31;55953;51.650;-0.522;2022-12-07T14:50:52;4.20;79.87
68912;SHT31;55953;51.650;-0.522;2022-12-07T14:53:42;4.12;80.00
68912;SHT31;55953;51.650;-0.522;2022-12-07T14:56:23;4.07;80.26
68912;SHT31;55953;51.650;-0.522;2022-12-07T14:58:52;4.01;80.32
68912;SHT31;55953;51.650;-0.522;2022-12-07T15:01:19;3.92;80.46
68912;SHT31;55953;51.650;-0.522;2022-12-07T15:03:47;3.87;80.64
68912;SHT31;55953;51.650;-0.522;2022-12-07T15:06:16;3.81;80.70
68912;SHT31;55953;51.650;-0.522;2022-12-07T15:08:45;3.71;80.53
68912;SHT31;55953;51.650;-0.522;2022-12-07T15:11:14;3.64;80.96
68912;SHT31;55953;51.650;-0.522;2022-12-07T15:13:44;3.59;81.09
68912;SHT31;55953;51.650;-0.522;2022-12-07T15:16:31;3.53;81.23
68912;SHT31;55953;51.650;-0.522;2022-12-07T15:19:20;3.45;81.30
68912;SHT31;55953;51.650;-0.522;2022-12-07T15:21:56;3.39;81.57
68912;SHT31;55953;51.650;-0.522;2022-12-07T15:24:25;3.34;81.68
68912;SHT31;55953;51.650;-0.522;2022-12-07T15:26:54;3.27;81.89
68912;SHT31;55953;51.650;-0.522;2022-12-07T15:29:22;3.20;82.10
68912;SHT31;55953;51.650;-0.522;2022-12-07T15:31:51;3.15;82.18
68912;SHT31;55953;51.650;-0.522;2022-12-07T15:34:24;3.10;82.26
68912;SHT31;55953;51.650;-0.522;2022-12-07T15:37:02;3.04;82.31
68912;SHT31;55953;51.650;-0.522;2022-12-07T15:39:30;2.99;82.40
68912;SHT31;55953;51.650;-0.522;2022-12-07T15:41:58;2.94;82.50
68912;SHT31;55953;51.650;-0.522;2022-12-07T15:44:26;2.89;82.72
68912;SHT31;55953;51.650;-0.522;2022-12-07T15:47:12;2.83;82.88
68912;SHT31;55953;51.650;-0.522;2022-12-07T15:49:40;2.76;83.10
68912;SHT31;55953;51.650;-0.522;2022-12-07T15:52:08;2.71;83.19
68912;SHT31;55953;51.650;-0.522;2022-12-07T15:54:36;2.67;83.25
68912;SHT31;55953;51.650;-0.522;2022-12-07T15:57:04;2.60;83.33
68912;SHT31;55953;51.650;-0.522;2022-12-07T15:59:32;2.55;83.53
68912;SHT31;55953;51.650;-0.522;2022-12-07T16:02:00;2.50;83.81
68912;SHT31;55953;51.650;-0.522;2022-12-07T16:04:28;2.45;83.91
68912;SHT31;55953;51.650;-0.522;2022-12-07T16:06:59;2.42;83.96
68912;SHT31;55953;51.650;-0.522;2022-12-07T16:09:26;2.39;84.05
68912;SHT31;55953;51.650;-0.522;2022-12-07T16:11:54;2.34;84.41
68912;SHT31;55953;51.650;-0.522;2022-12-07T16:14:23;2.32;84.27
68912;SHT31;55953;51.650;-0.522;2022-12-07T16:16:50;2.27;84.61
68912;SHT31;55953;51.650;-0.522;2022-12-07T16:19:18;2.24;84.50
68912;SHT31;55953;51.650;-0.522;2022-12-07T16:21:46;2.23;84.61
68912;SHT31;55953;51.650;-0.522;2022-12-07T16:24:14;2.21;84.87
68912;SHT31;55953;51.650;-0.522;2022-12-07T16:26:43;2.19;84.87
68912;SHT31;55953;51.650;-0.522;2022-12-07T16:29:17;2.18;84.73
68912;SHT31;55953;51.650;-0.522;2022-12-07T16:31:49;2.15;84.68
68912;SHT31;55953;51.650;-0.522;2022-12-07T16:34:18;2.12;84.82
68912;SHT31;55953;51.650;-0.522;2022-12-07T16:36:46;2.07;85.02
68912;SHT31;55953;51.650;-0.522;2022-12-07T16:39:31;2.04;85.18
68912;SHT31;55953;51.650;-0.522;2022-12-07T16:42:01;2.01;85.31
68912;SHT31;55953;51.650;-0.522;2022-12-07T16:44:29;2.00;85.44
68912;SHT31;55953;51.650;-0.522;2022-12-07T16:46:59;1.98;85.56
68912;SHT31;55953;51.650;-0.522;2022-12-07T16:49:28;1.96;85.39
68912;SHT31;55953;51.650;-0.522;2022-12-07T16:51:56;1.93;85.69
68912;SHT31;55953;51.650;-0.522;2022-12-07T16:54:44;1.90;85.47
68912;SHT31;55953;51.650;-0.522;2022-12-07T16:57:13;1.90;85.48
68912;SHT31;55953;51.650;-0.522;2022-12-07T16:59:48;1.86;85.46
68912;SHT31;55953;51.650;-0.522;2022-12-07T17:02:16;1.84;85.62
68912;SHT31;55953;51.650;-0.522;2022-12-07T17:04:44;1.84;85.69
68912;SHT31;55953;51.650;-0.522;2022-12-07T17:07:12;1.85;85.58
68912;SHT31;55953;51.650;-0.522;2022-12-07T17:09:40;1.83;85.57
68912;SHT31;55953;51.650;-0.522;2022-12-07T17:12:07;1.81;85.56
68912;SHT31;55953;51.650;-0.522;2022-12-07T17:14:35;1.79;85.53
68912;SHT31;55953;51.650;-0.522;2022-12-07T17:17:22;1.78;85.69
68912;SHT31;55953;51.650;-0.522;2022-12-07T17:19:50;1.82;85.52
68912;SHT31;55953;51.650;-0.522;2022-12-07T17:22:17;1.78;85.44
68912;SHT31;55953;51.650;-0.522;2022-12-07T17:24:45;1.72;85.73
68912;SHT31;55953;51.650;-0.522;2022-12-07T17:27:13;1.69;86.07
68912;SHT31;55953;51.650;-0.522;2022-12-07T17:29:41;1.66;86.13
68912;SHT31;55953;51.650;-0.522;2022-12-07T17:32:08;1.63;86.22
68912;SHT31;55953;51.650;-0.522;2022-12-07T17:34:36;1.60;86.46
68912;SHT31;55953;51.650;-0.522;2022-12-07T17:37:04;1.59;86.80
68912;SHT31;55953;51.650;-0.522;2022-12-07T17:39:32;1.58;86.66
68912;SHT31;55953;51.650;-0.522;2022-12-07T17:42:00;1.59;86.80
68912;SHT31;55953;51.650;-0.522;2022-12-07T17:44:46;1.59;86.78
68912;SHT31;55953;51.650;-0.522;2022-12-07T17:47:14;1.57;86.74
68912;SHT31;55953;51.650;-0.522;2022-12-07T17:49:44;1.55;86.67
68912;SHT31;55953;51.650;-0.522;2022-12-07T17:52:13;1.52;87.23
68912;SHT31;55953;51.650;-0.522;2022-12-07T17:55:00;1.52;87.10
68912;SHT31;55953;51.650;-0.522;2022-12-07T17:57:29;1.52;87.26
68912;SHT31;55953;51.650;-0.522;2022-12-07T17:59:57;1.52;87.41
68912;SHT31;55953;51.650;-0.522;2022-12-07T18:02:25;1.53;87.28
68912;SHT31;55953;51.650;-0.522;2022-12-07T18:04:53;1.51;87.06
68912;SHT31;55953;51.650;-0.522;2022-12-07T18:07:20;1.50;87.12
68912;SHT31;55953;51.650;-0.522;2022-12-07T18:09:48;1.49;87.13
68912;SHT31;55953;51.650;-0.522;2022-12-07T18:12:16;1.47;87.05
68912;SHT31;55953;51.650;-0.522;2022-12-07T18:14:44;1.46;87.15
68912;SHT31;55953;51.650;-0.522;2022-12-07T18:17:11;1.44;87.45
68912;SHT31;55953;51.650;-0.522;2022-12-07T18:19:39;1.40;87.36
68912;SHT31;55953;51.650;-0.522;2022-12-07T18:22:07;1.40;87.30
68912;SHT31;55953;51.650;-0.522;2022-12-07T18:24:35;1.37;87.50
68912;SHT31;55953;51.650;-0.522;2022-12-07T18:27:05;1.40;87.45
68912;SHT31;55953;51.650;-0.522;2022-12-07T18:29:33;1.38;87.33